TPA67QT EFHK-LGAV
Flight info
| Callsign | TPA67QT |
|---|---|
| Flight time | 3h 57m |
| Altitude | 38000 |
| Route | KOIVU DCT LARTI DCT NAVOT DCT LUTAL DCT BERIL/N0472F370 DCT SUWGI/N0471F380 DCT TITUV M985 SUTIK DCT LOGDA/N0466F390 DCT KSC DCT NARKA DCT ORA DCT ADUKU DCT BAVMA DCT EVRIK DCT OLMIP DCT EKNAB DCT SODGO DCT OVDOT DCT LOMOS/N0462F400 DCT BOBVO DCT LETNI/N0459F390 DCT MAKED DCT SIGFO UM749 ROPOX |
| Aircraft | A333/H-SDE3GHIJ2J3J5M1RVWXY/LB2D1 |
Departure
| Time | 2026-05-06 21:27 |
|---|---|
| Airport | Helsinki Vantaa Airport (EFHK) |
Arrival
| Time | 2026-05-07 01:25 |
|---|---|
| Airport | Athens Eleftherios Venizelos International Airport (LGAV) |
| Time | Latitude | Longitude | Altitude | Speed | Heading |
|---|---|---|---|---|---|
| 2026-05-06 20:52 | 60.31466 | 24.95608 | 165 ft | 0 kts | 135° |
| 2026-05-06 21:13 | 60.31475 | 24.95591 | 164 ft | 3 kts | 128° |
| 2026-05-06 21:13 | 60.31483 | 24.95569 | 164 ft | 3 kts | 117° |
| 2026-05-06 21:14 | 60.31490 | 24.95532 | 164 ft | 3 kts | 101° |
| 2026-05-06 21:14 | 60.31492 | 24.95492 | 164 ft | 3 kts | 86° |
| 2026-05-06 21:14 | 60.31489 | 24.95452 | 163 ft | 3 kts | 71° |
| 2026-05-06 21:14 | 60.31482 | 24.95416 | 163 ft | 3 kts | 54° |
| 2026-05-06 21:15 | 60.31476 | 24.95402 | 163 ft | 0 kts | 47° |
| 2026-05-06 21:16 | 60.31477 | 24.95402 | 163 ft | 0 kts | 47° |
| 2026-05-06 21:16 | 60.31503 | 24.95455 | 163 ft | 23 kts | 46° |
| 2026-05-06 21:17 | 60.31636 | 24.95656 | 164 ft | 12 kts | 351° |
| 2026-05-06 21:17 | 60.31681 | 24.95612 | 164 ft | 10 kts | 332° |
| 2026-05-06 21:17 | 60.31759 | 24.95619 | 164 ft | 11 kts | 31° |
| 2026-05-06 21:17 | 60.31831 | 24.95747 | 164 ft | 17 kts | 46° |
| 2026-05-06 21:18 | 60.31929 | 24.95928 | 165 ft | 21 kts | 22° |
| 2026-05-06 21:18 | 60.32015 | 24.95883 | 166 ft | 13 kts | 315° |
| 2026-05-06 21:18 | 60.32139 | 24.95644 | 165 ft | 37 kts | 317° |
| 2026-05-06 21:18 | 60.32388 | 24.95245 | 169 ft | 51 kts | 337° |
| 2026-05-06 21:19 | 60.32670 | 24.95059 | 174 ft | 32 kts | 342° |
| 2026-05-06 21:19 | 60.32849 | 24.94939 | 182 ft | 19 kts | 339° |
| 2026-05-06 21:19 | 60.32951 | 24.94808 | 199 ft | 16 kts | 319° |
| 2026-05-06 21:19 | 60.33027 | 24.94669 | 206 ft | 14 kts | 317° |
| 2026-05-06 21:20 | 60.33048 | 24.94629 | 205 ft | 0 kts | 317° |
| 2026-05-06 21:23 | 60.33058 | 24.94610 | 199 ft | 8 kts | 317° |
| 2026-05-06 21:24 | 60.33105 | 24.94497 | 211 ft | 9 kts | 289° |
| 2026-05-06 21:24 | 60.33099 | 24.94366 | 205 ft | 10 kts | 244° |
| 2026-05-06 21:24 | 60.33071 | 24.94294 | 210 ft | 0 kts | 227° |
| 2026-05-06 21:26 | 60.33071 | 24.94293 | 210 ft | 0 kts | 227° |
| 2026-05-06 21:27 | 60.32924 | 24.93968 | 206 ft | 69 kts | 228° |
| 2026-05-06 21:27 | 60.32439 | 24.92891 | 177 ft | 136 kts | 227° |
| 2026-05-06 21:27 | 60.31671 | 24.91243 | 400 ft | 177 kts | 230° |
| 2026-05-06 21:27 | 60.30837 | 24.89287 | 1180 ft | 186 kts | 232° |
| 2026-05-06 21:28 | 60.30052 | 24.87129 | 2084 ft | 201 kts | 238° |
| 2026-05-06 21:28 | 60.29208 | 24.84584 | 2518 ft | 236 kts | 238° |
| 2026-05-06 21:28 | 60.28258 | 24.81666 | 3075 ft | 257 kts | 237° |
| 2026-05-06 21:28 | 60.27269 | 24.78631 | 3996 ft | 261 kts | 237° |
| 2026-05-06 21:29 | 60.26432 | 24.75361 | 5010 ft | 263 kts | 246° |
| 2026-05-06 21:29 | 60.25754 | 24.71980 | 6036 ft | 264 kts | 248° |
| 2026-05-06 21:29 | 60.25073 | 24.68526 | 7078 ft | 265 kts | 245° |
| 2026-05-06 21:29 | 60.24097 | 24.65394 | 8104 ft | 266 kts | 227° |
| 2026-05-06 21:30 | 60.22585 | 24.63249 | 9124 ft | 270 kts | 202° |
| 2026-05-06 21:30 | 60.20718 | 24.62542 | 10043 ft | 278 kts | 182° |
| 2026-05-06 21:30 | 60.18736 | 24.62653 | 10624 ft | 297 kts | 178° |
| 2026-05-06 21:30 | 60.16583 | 24.62938 | 10942 ft | 321 kts | 178° |
| 2026-05-06 21:31 | 60.14277 | 24.63245 | 11279 ft | 343 kts | 178° |
| 2026-05-06 21:31 | 60.11851 | 24.63545 | 11903 ft | 354 kts | 179° |
| 2026-05-06 21:31 | 60.09398 | 24.63832 | 12702 ft | 359 kts | 179° |
| 2026-05-06 21:31 | 60.06861 | 24.64119 | 13527 ft | 364 kts | 179° |
| 2026-05-06 21:32 | 60.04354 | 24.64397 | 14333 ft | 366 kts | 179° |
| 2026-05-06 21:32 | 59.99214 | 24.64953 | 15903 ft | 372 kts | 180° |
| 2026-05-06 21:32 | 59.96608 | 24.65232 | 16667 ft | 376 kts | 181° |
| 2026-05-06 21:33 | 59.93994 | 24.65510 | 17429 ft | 379 kts | 181° |
| 2026-05-06 21:33 | 59.91353 | 24.65791 | 18181 ft | 382 kts | 182° |
| 2026-05-06 21:33 | 59.88689 | 24.66074 | 18846 ft | 384 kts | 182° |
| 2026-05-06 21:33 | 59.86014 | 24.66318 | 19481 ft | 385 kts | 184° |
| 2026-05-06 21:34 | 59.83350 | 24.65956 | 20100 ft | 383 kts | 193° |
| 2026-05-06 21:34 | 59.80725 | 24.65045 | 20725 ft | 383 kts | 196° |
| 2026-05-06 21:34 | 59.78121 | 24.63871 | 21333 ft | 384 kts | 198° |
| 2026-05-06 21:34 | 59.75553 | 24.62594 | 21940 ft | 386 kts | 199° |
| 2026-05-06 21:35 | 59.72943 | 24.61264 | 22528 ft | 389 kts | 199° |
| 2026-05-06 21:35 | 59.70313 | 24.59941 | 23109 ft | 392 kts | 199° |
| 2026-05-06 21:35 | 59.67661 | 24.58635 | 23666 ft | 394 kts | 199° |
| 2026-05-06 21:35 | 59.64991 | 24.57292 | 24128 ft | 397 kts | 199° |
| 2026-05-06 21:36 | 59.62306 | 24.55901 | 24576 ft | 400 kts | 199° |
| 2026-05-06 21:36 | 59.59607 | 24.54486 | 24981 ft | 403 kts | 199° |
| 2026-05-06 21:36 | 59.56873 | 24.53050 | 25388 ft | 407 kts | 199° |
| 2026-05-06 21:36 | 59.54121 | 24.51609 | 25853 ft | 410 kts | 199° |
| 2026-05-06 21:37 | 59.51357 | 24.50171 | 26315 ft | 412 kts | 199° |
| 2026-05-06 21:37 | 59.48563 | 24.48722 | 26754 ft | 415 kts | 199° |
| 2026-05-06 21:37 | 59.45769 | 24.47280 | 27187 ft | 417 kts | 199° |
| 2026-05-06 21:37 | 59.42975 | 24.45840 | 27624 ft | 420 kts | 199° |
| 2026-05-06 21:38 | 59.40104 | 24.44365 | 28056 ft | 423 kts | 199° |
| 2026-05-06 21:38 | 59.37284 | 24.42919 | 28489 ft | 425 kts | 199° |
| 2026-05-06 21:38 | 59.34393 | 24.41462 | 28904 ft | 429 kts | 198° |
| 2026-05-06 21:38 | 59.31465 | 24.40205 | 29323 ft | 433 kts | 196° |
| 2026-05-06 21:39 | 59.28499 | 24.39099 | 29744 ft | 436 kts | 195° |
| 2026-05-06 21:39 | 59.25484 | 24.38055 | 30138 ft | 439 kts | 194° |
| 2026-05-06 21:39 | 59.22470 | 24.37034 | 30450 ft | 441 kts | 194° |
| 2026-05-06 21:39 | 59.19433 | 24.36000 | 30817 ft | 443 kts | 194° |
| 2026-05-06 21:40 | 59.16397 | 24.34952 | 31282 ft | 442 kts | 194° |
| 2026-05-06 21:40 | 59.13378 | 24.33899 | 31847 ft | 438 kts | 194° |
| 2026-05-06 21:40 | 59.10385 | 24.32846 | 32385 ft | 436 kts | 195° |
| 2026-05-06 21:40 | 59.07404 | 24.31791 | 32883 ft | 434 kts | 194° |
| 2026-05-06 21:41 | 59.04473 | 24.30749 | 33384 ft | 432 kts | 194° |
| 2026-05-06 21:41 | 59.01507 | 24.29694 | 33730 ft | 433 kts | 194° |
| 2026-05-06 21:41 | 58.98540 | 24.28641 | 34118 ft | 433 kts | 194° |
| 2026-05-06 21:41 | 58.95569 | 24.27591 | 34463 ft | 433 kts | 194° |
| 2026-05-06 21:42 | 58.92598 | 24.26543 | 34753 ft | 433 kts | 194° |
| 2026-05-06 21:42 | 58.89633 | 24.25499 | 35043 ft | 434 kts | 194° |
| 2026-05-06 21:42 | 58.86649 | 24.24451 | 35334 ft | 435 kts | 194° |
| 2026-05-06 21:42 | 58.83703 | 24.23419 | 35626 ft | 436 kts | 194° |
| 2026-05-06 21:43 | 58.80680 | 24.22362 | 35911 ft | 436 kts | 194° |
| 2026-05-06 21:43 | 58.77730 | 24.21332 | 36184 ft | 437 kts | 194° |
| 2026-05-06 21:43 | 58.74731 | 24.20286 | 36448 ft | 438 kts | 194° |
| 2026-05-06 21:43 | 58.71725 | 24.19240 | 36708 ft | 439 kts | 194° |
| 2026-05-06 21:44 | 58.68718 | 24.18195 | 36972 ft | 440 kts | 194° |
| 2026-05-06 21:44 | 58.65719 | 24.17155 | 37261 ft | 440 kts | 194° |
| 2026-05-06 21:44 | 58.62697 | 24.16110 | 37547 ft | 440 kts | 194° |
| 2026-05-06 21:44 | 58.59681 | 24.15068 | 37826 ft | 441 kts | 194° |
| 2026-05-06 21:45 | 58.56660 | 24.14026 | 38086 ft | 441 kts | 194° |
| 2026-05-06 21:45 | 58.53645 | 24.12988 | 38361 ft | 441 kts | 194° |
| 2026-05-06 21:45 | 58.50617 | 24.11948 | 38626 ft | 442 kts | 194° |
| 2026-05-06 21:45 | 58.47582 | 24.10906 | 38824 ft | 442 kts | 194° |
| 2026-05-06 21:46 | 58.44555 | 24.09869 | 38995 ft | 443 kts | 194° |
| 2026-05-06 21:46 | 58.41527 | 24.08834 | 39191 ft | 443 kts | 194° |
| 2026-05-06 21:46 | 58.38492 | 24.07798 | 39391 ft | 443 kts | 194° |
| 2026-05-06 21:46 | 58.35455 | 24.06763 | 39576 ft | 443 kts | 194° |
| 2026-05-06 21:47 | 58.32442 | 24.05738 | 39765 ft | 444 kts | 194° |
| 2026-05-06 21:47 | 58.29407 | 24.04708 | 39930 ft | 445 kts | 194° |
| 2026-05-06 21:47 | 58.23291 | 24.02635 | 39972 ft | 447 kts | 194° |
| 2026-05-06 21:48 | 58.17143 | 24.00561 | 39963 ft | 447 kts | 194° |
| 2026-05-06 21:48 | 58.11027 | 23.98506 | 39971 ft | 447 kts | 194° |
| 2026-05-06 21:49 | 58.04883 | 23.96447 | 39971 ft | 447 kts | 194° |
| 2026-05-06 21:49 | 57.98744 | 23.94397 | 39967 ft | 447 kts | 194° |
| 2026-05-06 21:50 | 57.92623 | 23.92361 | 39970 ft | 447 kts | 194° |
| 2026-05-06 21:50 | 57.86534 | 23.90341 | 39966 ft | 447 kts | 194° |
| 2026-05-06 21:51 | 57.80407 | 23.88317 | 39966 ft | 447 kts | 194° |
| 2026-05-06 21:51 | 57.74276 | 23.86299 | 39969 ft | 447 kts | 194° |
| 2026-05-06 21:52 | 57.68137 | 23.84285 | 39969 ft | 447 kts | 194° |
| 2026-05-06 21:52 | 57.62006 | 23.82280 | 39944 ft | 447 kts | 194° |
| 2026-05-06 21:53 | 57.55907 | 23.80293 | 39964 ft | 447 kts | 194° |
| 2026-05-06 21:53 | 57.49784 | 23.78305 | 39961 ft | 447 kts | 194° |
| 2026-05-06 21:54 | 57.43654 | 23.76321 | 39964 ft | 447 kts | 194° |
| 2026-05-06 21:54 | 57.37536 | 23.74347 | 39963 ft | 447 kts | 194° |
| 2026-05-06 21:55 | 57.31398 | 23.72374 | 39954 ft | 447 kts | 193° |
| 2026-05-06 21:55 | 57.25283 | 23.70416 | 39962 ft | 447 kts | 193° |
| 2026-05-06 21:56 | 57.19147 | 23.68456 | 39956 ft | 447 kts | 193° |
| 2026-05-06 21:56 | 57.13057 | 23.66519 | 39957 ft | 447 kts | 193° |
| 2026-05-06 21:57 | 57.06929 | 23.64575 | 39955 ft | 447 kts | 193° |
| 2026-05-06 21:57 | 57.00826 | 23.62647 | 39944 ft | 445 kts | 193° |
| 2026-05-06 21:58 | 56.95732 | 23.61042 | 39939 ft | 444 kts | 193° |
| 2026-05-06 21:58 | 56.89629 | 23.59124 | 39930 ft | 445 kts | 193° |
| 2026-05-06 21:59 | 56.83522 | 23.57212 | 39925 ft | 445 kts | 193° |
| 2026-05-06 21:59 | 56.77426 | 23.55309 | 39922 ft | 445 kts | 193° |
| 2026-05-06 22:00 | 56.71326 | 23.53412 | 39935 ft | 444 kts | 193° |
| 2026-05-06 22:00 | 56.65244 | 23.51527 | 39938 ft | 443 kts | 193° |
| 2026-05-06 22:01 | 56.59198 | 23.49658 | 39936 ft | 443 kts | 193° |
| 2026-05-06 22:01 | 56.53116 | 23.47784 | 39927 ft | 443 kts | 193° |
| 2026-05-06 22:02 | 56.47021 | 23.45913 | 39927 ft | 444 kts | 193° |
| 2026-05-06 22:02 | 56.40929 | 23.44049 | 39919 ft | 443 kts | 193° |
| 2026-05-06 22:03 | 56.34829 | 23.42237 | 39909 ft | 444 kts | 192° |
| 2026-05-06 22:03 | 56.28690 | 23.40707 | 39909 ft | 445 kts | 191° |
| 2026-05-06 22:04 | 56.22584 | 23.39278 | 39896 ft | 445 kts | 191° |
| 2026-05-06 22:04 | 56.16440 | 23.37826 | 39897 ft | 446 kts | 191° |
| 2026-05-06 22:05 | 56.10282 | 23.36354 | 39890 ft | 446 kts | 191° |
| 2026-05-06 22:05 | 56.04103 | 23.34873 | 39885 ft | 447 kts | 192° |
| 2026-05-06 22:06 | 55.97929 | 23.33397 | 39884 ft | 448 kts | 192° |
| 2026-05-06 22:06 | 55.91754 | 23.31928 | 39883 ft | 447 kts | 192° |
| 2026-05-06 22:07 | 55.85636 | 23.30478 | 39884 ft | 446 kts | 192° |
| 2026-05-06 22:07 | 55.79473 | 23.29020 | 39883 ft | 446 kts | 192° |
| 2026-05-06 22:08 | 55.73312 | 23.27567 | 39881 ft | 446 kts | 192° |
| 2026-05-06 22:08 | 55.67149 | 23.26119 | 39872 ft | 446 kts | 191° |
| 2026-05-06 22:09 | 55.60998 | 23.24679 | 39874 ft | 445 kts | 191° |
| 2026-05-06 22:09 | 55.54847 | 23.23244 | 39862 ft | 445 kts | 191° |
| 2026-05-06 22:10 | 55.48707 | 23.21814 | 39862 ft | 445 kts | 191° |
| 2026-05-06 22:10 | 55.42574 | 23.20391 | 39843 ft | 445 kts | 191° |
| 2026-05-06 22:11 | 55.36426 | 23.18969 | 39848 ft | 445 kts | 191° |
| 2026-05-06 22:11 | 55.30325 | 23.17563 | 39848 ft | 445 kts | 191° |
| 2026-05-06 22:12 | 55.24178 | 23.16150 | 39843 ft | 445 kts | 191° |
| 2026-05-06 22:12 | 55.18092 | 23.14761 | 39832 ft | 430 kts | 191° |
| 2026-05-06 22:13 | 55.15164 | 23.14101 | 39830 ft | 416 kts | 191° |
| 2026-05-06 22:13 | 55.12332 | 23.13463 | 39838 ft | 403 kts | 191° |
| 2026-05-06 22:13 | 55.09597 | 23.12845 | 39841 ft | 392 kts | 192° |
| 2026-05-06 22:13 | 55.06923 | 23.12236 | 39840 ft | 389 kts | 192° |
| 2026-05-06 22:14 | 55.01569 | 23.11004 | 39829 ft | 389 kts | 192° |
| 2026-05-06 22:14 | 54.96140 | 23.09758 | 39828 ft | 398 kts | 192° |
| 2026-05-06 22:15 | 54.90560 | 23.08488 | 39825 ft | 407 kts | 191° |
| 2026-05-06 22:15 | 54.84937 | 23.07226 | 39827 ft | 407 kts | 191° |
| 2026-05-06 22:16 | 54.79321 | 23.05970 | 39821 ft | 407 kts | 191° |
| 2026-05-06 22:16 | 54.73741 | 23.04722 | 39821 ft | 407 kts | 191° |
| 2026-05-06 22:17 | 54.68075 | 23.03452 | 39819 ft | 415 kts | 191° |
| 2026-05-06 22:17 | 54.62268 | 23.02151 | 39809 ft | 426 kts | 191° |
| 2026-05-06 22:18 | 54.56319 | 23.00828 | 39815 ft | 437 kts | 191° |
| 2026-05-06 22:18 | 54.50203 | 22.99474 | 39813 ft | 446 kts | 191° |
| 2026-05-06 22:19 | 54.44020 | 22.98114 | 39816 ft | 447 kts | 191° |
| 2026-05-06 22:19 | 54.37965 | 22.96787 | 39827 ft | 446 kts | 191° |
| 2026-05-06 22:20 | 54.31745 | 22.95423 | 39802 ft | 446 kts | 191° |
| 2026-05-06 22:20 | 54.25591 | 22.94077 | 39807 ft | 445 kts | 191° |
| 2026-05-06 22:21 | 54.19432 | 22.92732 | 39813 ft | 445 kts | 191° |
| 2026-05-06 22:21 | 54.13322 | 22.91403 | 39810 ft | 445 kts | 191° |
| 2026-05-06 22:22 | 54.07276 | 22.89322 | 39796 ft | 441 kts | 201° |
| 2026-05-06 22:22 | 54.01768 | 22.84854 | 39804 ft | 439 kts | 211° |
| 2026-05-06 22:23 | 53.96496 | 22.79574 | 39804 ft | 439 kts | 213° |
| 2026-05-06 22:23 | 53.91278 | 22.74194 | 39802 ft | 439 kts | 213° |
| 2026-05-06 22:24 | 53.86041 | 22.68853 | 39803 ft | 439 kts | 212° |
| 2026-05-06 22:24 | 53.80820 | 22.63594 | 39796 ft | 439 kts | 212° |
| 2026-05-06 22:25 | 53.75558 | 22.58326 | 39796 ft | 439 kts | 212° |
| 2026-05-06 22:25 | 53.70299 | 22.53079 | 39791 ft | 439 kts | 212° |
| 2026-05-06 22:26 | 53.65049 | 22.47852 | 39790 ft | 439 kts | 212° |
| 2026-05-06 22:26 | 53.59766 | 22.42607 | 39788 ft | 441 kts | 212° |
| 2026-05-06 22:27 | 53.54463 | 22.37356 | 39788 ft | 441 kts | 212° |
| 2026-05-06 22:27 | 53.49195 | 22.32157 | 39787 ft | 441 kts | 212° |
| 2026-05-06 22:28 | 53.43904 | 22.26951 | 39785 ft | 441 kts | 212° |
| 2026-05-06 22:28 | 53.38595 | 22.21741 | 39785 ft | 442 kts | 212° |
| 2026-05-06 22:29 | 53.33280 | 22.16541 | 39781 ft | 442 kts | 212° |
| 2026-05-06 22:29 | 53.27985 | 22.11376 | 39782 ft | 437 kts | 212° |
| 2026-05-06 22:30 | 53.22731 | 22.06266 | 39786 ft | 436 kts | 212° |
| 2026-05-06 22:30 | 53.17522 | 22.01213 | 39778 ft | 436 kts | 212° |
| 2026-05-06 22:31 | 53.12267 | 21.96131 | 39781 ft | 436 kts | 212° |
| 2026-05-06 22:31 | 53.07011 | 21.91062 | 39782 ft | 436 kts | 212° |
| 2026-05-06 22:32 | 53.01761 | 21.86014 | 39777 ft | 436 kts | 212° |
| 2026-05-06 22:32 | 52.96505 | 21.80975 | 39787 ft | 436 kts | 212° |
| 2026-05-06 22:33 | 52.91246 | 21.75948 | 39786 ft | 436 kts | 212° |
| 2026-05-06 22:33 | 52.85647 | 21.71983 | 39783 ft | 441 kts | 198° |
| 2026-05-06 22:34 | 52.79582 | 21.70374 | 39778 ft | 445 kts | 189° |
| 2026-05-06 22:34 | 52.73399 | 21.69618 | 39778 ft | 446 kts | 187° |
| 2026-05-06 22:35 | 52.67198 | 21.68996 | 39777 ft | 446 kts | 187° |
| 2026-05-06 22:35 | 52.61008 | 21.68314 | 39780 ft | 446 kts | 187° |
| 2026-05-06 22:36 | 52.54850 | 21.67585 | 39778 ft | 445 kts | 187° |
| 2026-05-06 22:36 | 52.48662 | 21.66838 | 39768 ft | 445 kts | 187° |
| 2026-05-06 22:37 | 52.42485 | 21.66094 | 39779 ft | 446 kts | 187° |
| 2026-05-06 22:37 | 52.36277 | 21.65351 | 39780 ft | 446 kts | 187° |
| 2026-05-06 22:38 | 52.30110 | 21.64617 | 39779 ft | 446 kts | 187° |
| 2026-05-06 22:38 | 52.23925 | 21.63884 | 39781 ft | 446 kts | 187° |
| 2026-05-06 22:39 | 52.17733 | 21.63150 | 39783 ft | 446 kts | 187° |
| 2026-05-06 22:39 | 52.11530 | 21.62418 | 39767 ft | 447 kts | 187° |
| 2026-05-06 22:40 | 52.05326 | 21.61689 | 39786 ft | 446 kts | 187° |
| 2026-05-06 22:40 | 51.99123 | 21.60960 | 39789 ft | 446 kts | 187° |
| 2026-05-06 22:41 | 51.89857 | 21.59876 | 39794 ft | 445 kts | 187° |
| 2026-05-06 22:42 | 51.84711 | 21.59276 | 39793 ft | 445 kts | 187° |
| 2026-05-06 22:42 | 51.78536 | 21.58558 | 39796 ft | 445 kts | 187° |
| 2026-05-06 22:43 | 51.72350 | 21.57840 | 39789 ft | 445 kts | 188° |
| 2026-05-06 22:43 | 51.66217 | 21.57131 | 39793 ft | 444 kts | 188° |
| 2026-05-06 22:44 | 51.60054 | 21.56420 | 39794 ft | 443 kts | 188° |
| 2026-05-06 22:44 | 51.53886 | 21.55710 | 39799 ft | 443 kts | 188° |
| 2026-05-06 22:45 | 51.47794 | 21.55011 | 39800 ft | 443 kts | 188° |
| 2026-05-06 22:45 | 51.41643 | 21.54307 | 39801 ft | 443 kts | 188° |
| 2026-05-06 22:46 | 51.35471 | 21.53603 | 39795 ft | 443 kts | 188° |
| 2026-05-06 22:46 | 51.29347 | 21.52906 | 39801 ft | 444 kts | 188° |
| 2026-05-06 22:47 | 51.23181 | 21.52206 | 39803 ft | 444 kts | 188° |
| 2026-05-06 22:47 | 51.17016 | 21.51508 | 39807 ft | 444 kts | 188° |
| 2026-05-06 22:48 | 51.10836 | 21.50810 | 39809 ft | 444 kts | 188° |
| 2026-05-06 22:48 | 51.04668 | 21.50115 | 39812 ft | 444 kts | 188° |
| 2026-05-06 22:49 | 50.98546 | 21.49428 | 39810 ft | 444 kts | 188° |
| 2026-05-06 22:49 | 50.92401 | 21.48741 | 39815 ft | 442 kts | 188° |
| 2026-05-06 22:50 | 50.86271 | 21.48056 | 39814 ft | 441 kts | 188° |
| 2026-05-06 22:50 | 50.80141 | 21.47372 | 39820 ft | 442 kts | 188° |
| 2026-05-06 22:51 | 50.74007 | 21.46690 | 39810 ft | 442 kts | 188° |
| 2026-05-06 22:51 | 50.67868 | 21.46010 | 39818 ft | 442 kts | 188° |
| 2026-05-06 22:52 | 50.61735 | 21.45332 | 39821 ft | 442 kts | 188° |
| 2026-05-06 22:52 | 50.55584 | 21.44653 | 39823 ft | 443 kts | 188° |
| 2026-05-06 22:53 | 50.49459 | 21.43979 | 39823 ft | 443 kts | 188° |
| 2026-05-06 22:53 | 50.43305 | 21.43304 | 39829 ft | 443 kts | 188° |
| 2026-05-06 22:54 | 50.37150 | 21.42631 | 39827 ft | 443 kts | 188° |
| 2026-05-06 22:54 | 50.30977 | 21.41958 | 39826 ft | 443 kts | 188° |
| 2026-05-06 22:55 | 50.24830 | 21.41289 | 39825 ft | 443 kts | 188° |
| 2026-05-06 22:55 | 50.18687 | 21.40623 | 39837 ft | 441 kts | 188° |
| 2026-05-06 22:56 | 50.12593 | 21.39963 | 39837 ft | 441 kts | 188° |
| 2026-05-06 22:56 | 50.06461 | 21.39300 | 39837 ft | 441 kts | 188° |
| 2026-05-06 22:57 | 50.00344 | 21.38641 | 39837 ft | 441 kts | 187° |
| 2026-05-06 22:57 | 49.94198 | 21.37981 | 39841 ft | 441 kts | 187° |
| 2026-05-06 22:58 | 49.88065 | 21.37323 | 39841 ft | 442 kts | 187° |
| 2026-05-06 22:58 | 49.81920 | 21.36665 | 39848 ft | 443 kts | 187° |
| 2026-05-06 22:59 | 49.75750 | 21.36006 | 39854 ft | 445 kts | 187° |
| 2026-05-06 22:59 | 49.69546 | 21.35347 | 39853 ft | 446 kts | 187° |
| 2026-05-06 23:00 | 49.63351 | 21.34691 | 39865 ft | 446 kts | 187° |
| 2026-05-06 23:00 | 49.57146 | 21.34035 | 39864 ft | 446 kts | 187° |
| 2026-05-06 23:01 | 49.50946 | 21.33380 | 39870 ft | 446 kts | 187° |
| 2026-05-06 23:01 | 49.44772 | 21.32730 | 39876 ft | 447 kts | 187° |
| 2026-05-06 23:02 | 49.38563 | 21.32079 | 39872 ft | 447 kts | 187° |
| 2026-05-06 23:02 | 49.32372 | 21.31431 | 39877 ft | 447 kts | 187° |
| 2026-05-06 23:03 | 49.26153 | 21.30782 | 39893 ft | 447 kts | 187° |
| 2026-05-06 23:03 | 49.19937 | 21.30132 | 39882 ft | 447 kts | 187° |
| 2026-05-06 23:04 | 49.13765 | 21.29489 | 39901 ft | 448 kts | 187° |
| 2026-05-06 23:04 | 49.07541 | 21.28845 | 39901 ft | 448 kts | 187° |
| 2026-05-06 23:05 | 49.01311 | 21.28201 | 39904 ft | 448 kts | 187° |
| 2026-05-06 23:05 | 48.95090 | 21.27560 | 39902 ft | 448 kts | 187° |
| 2026-05-06 23:06 | 48.88857 | 21.26919 | 39905 ft | 448 kts | 187° |
| 2026-05-06 23:06 | 48.82636 | 21.26281 | 39910 ft | 448 kts | 187° |
| 2026-05-06 23:07 | 48.76429 | 21.25645 | 39912 ft | 447 kts | 187° |
| 2026-05-06 23:07 | 48.70198 | 21.25186 | 39911 ft | 450 kts | 181° |
| 2026-05-06 23:08 | 48.63995 | 21.26683 | 39909 ft | 455 kts | 169° |
| 2026-05-06 23:08 | 48.57926 | 21.29214 | 39907 ft | 455 kts | 167° |
| 2026-05-06 23:09 | 48.51862 | 21.31937 | 39914 ft | 455 kts | 167° |
| 2026-05-06 23:09 | 48.45768 | 21.34649 | 39914 ft | 455 kts | 167° |
| 2026-05-06 23:10 | 48.39682 | 21.37310 | 39917 ft | 455 kts | 167° |
| 2026-05-06 23:10 | 48.33608 | 21.39942 | 39917 ft | 453 kts | 167° |
| 2026-05-06 23:11 | 48.27571 | 21.42549 | 39920 ft | 453 kts | 167° |
| 2026-05-06 23:11 | 48.21509 | 21.45161 | 39922 ft | 453 kts | 167° |
| 2026-05-06 23:12 | 48.15437 | 21.47771 | 39910 ft | 453 kts | 167° |
| 2026-05-06 23:12 | 48.09367 | 21.50375 | 39918 ft | 453 kts | 167° |
| 2026-05-06 23:13 | 48.03397 | 21.52931 | 39923 ft | 453 kts | 167° |
| 2026-05-06 23:13 | 47.97315 | 21.55528 | 39922 ft | 454 kts | 167° |
| 2026-05-06 23:14 | 47.91239 | 21.58116 | 39909 ft | 454 kts | 167° |
| 2026-05-06 23:14 | 47.85161 | 21.60698 | 39907 ft | 454 kts | 167° |
| 2026-05-06 23:15 | 47.79075 | 21.63277 | 39919 ft | 455 kts | 167° |
| 2026-05-06 23:15 | 47.72968 | 21.65860 | 39935 ft | 455 kts | 167° |
| 2026-05-06 23:16 | 47.66915 | 21.68413 | 39938 ft | 455 kts | 167° |
| 2026-05-06 23:16 | 47.60805 | 21.70984 | 39934 ft | 455 kts | 167° |
| 2026-05-06 23:17 | 47.54716 | 21.73541 | 39939 ft | 455 kts | 167° |
| 2026-05-06 23:17 | 47.48621 | 21.76093 | 39940 ft | 455 kts | 167° |
| 2026-05-06 23:18 | 47.42520 | 21.78641 | 39935 ft | 455 kts | 167° |
| 2026-05-06 23:18 | 47.36401 | 21.81193 | 39939 ft | 455 kts | 167° |
| 2026-05-06 23:19 | 47.30373 | 21.83698 | 39932 ft | 454 kts | 167° |
| 2026-05-06 23:19 | 47.24281 | 21.86231 | 39940 ft | 454 kts | 167° |
| 2026-05-06 23:20 | 47.18222 | 21.88836 | 39938 ft | 455 kts | 167° |
| 2026-05-06 23:20 | 47.12143 | 21.91484 | 39938 ft | 455 kts | 167° |
| 2026-05-06 23:21 | 47.06108 | 21.94101 | 39938 ft | 455 kts | 167° |
| 2026-05-06 23:21 | 47.00025 | 21.96721 | 39939 ft | 455 kts | 167° |
| 2026-05-06 23:22 | 46.93958 | 21.99324 | 39942 ft | 455 kts | 167° |
| 2026-05-06 23:22 | 46.87907 | 22.01909 | 39942 ft | 456 kts | 167° |
| 2026-05-06 23:23 | 46.81779 | 22.04516 | 39950 ft | 456 kts | 167° |
| 2026-05-06 23:23 | 46.75674 | 22.07111 | 39949 ft | 456 kts | 167° |
| 2026-05-06 23:24 | 46.69576 | 22.09704 | 39960 ft | 456 kts | 167° |
| 2026-05-06 23:24 | 46.63491 | 22.12288 | 39963 ft | 456 kts | 167° |
| 2026-05-06 23:25 | 46.57424 | 22.14857 | 39964 ft | 456 kts | 167° |
| 2026-05-06 23:25 | 46.51336 | 22.17428 | 39975 ft | 456 kts | 167° |
| 2026-05-06 23:26 | 46.45235 | 22.20000 | 39963 ft | 456 kts | 167° |
| 2026-05-06 23:26 | 46.39138 | 22.22562 | 39980 ft | 457 kts | 167° |
| 2026-05-06 23:27 | 46.33025 | 22.25126 | 39980 ft | 457 kts | 167° |
| 2026-05-06 23:27 | 46.27937 | 22.27255 | 39979 ft | 457 kts | 167° |
| 2026-05-06 23:28 | 46.21848 | 22.29797 | 39984 ft | 457 kts | 167° |
| 2026-05-06 23:28 | 46.15746 | 22.32338 | 39987 ft | 458 kts | 167° |
| 2026-05-06 23:29 | 46.09618 | 22.34884 | 39991 ft | 458 kts | 167° |
| 2026-05-06 23:29 | 46.03491 | 22.37424 | 39985 ft | 458 kts | 167° |
| 2026-05-06 23:30 | 45.97399 | 22.39946 | 39988 ft | 458 kts | 167° |
| 2026-05-06 23:30 | 45.91243 | 22.42488 | 39995 ft | 458 kts | 167° |
| 2026-05-06 23:31 | 45.85098 | 22.45020 | 39999 ft | 458 kts | 167° |
| 2026-05-06 23:31 | 45.79007 | 22.47523 | 39999 ft | 459 kts | 167° |
| 2026-05-06 23:32 | 45.72865 | 22.50043 | 39998 ft | 459 kts | 167° |
| 2026-05-06 23:32 | 45.66715 | 22.52558 | 40005 ft | 459 kts | 167° |
| 2026-05-06 23:33 | 45.60575 | 22.55061 | 40010 ft | 459 kts | 167° |
| 2026-05-06 23:33 | 45.54414 | 22.57569 | 40022 ft | 459 kts | 167° |
| 2026-05-06 23:34 | 45.48302 | 22.60051 | 40023 ft | 460 kts | 167° |
| 2026-05-06 23:34 | 45.42120 | 22.62555 | 40033 ft | 460 kts | 167° |
| 2026-05-06 23:35 | 45.35922 | 22.65058 | 40028 ft | 467 kts | 167° |
| 2026-05-06 23:35 | 45.29637 | 22.67587 | 40044 ft | 478 kts | 167° |
| 2026-05-06 23:36 | 45.23368 | 22.70110 | 40043 ft | 481 kts | 167° |
| 2026-05-06 23:36 | 45.16971 | 22.72682 | 40050 ft | 481 kts | 167° |
| 2026-05-06 23:37 | 45.10525 | 22.75265 | 40055 ft | 481 kts | 167° |
| 2026-05-06 23:37 | 45.04073 | 22.77844 | 40040 ft | 481 kts | 168° |
| 2026-05-06 23:38 | 44.97631 | 22.80410 | 40050 ft | 483 kts | 167° |
| 2026-05-06 23:38 | 44.91157 | 22.82985 | 40035 ft | 483 kts | 168° |
| 2026-05-06 23:39 | 44.84685 | 22.85553 | 40023 ft | 483 kts | 168° |
| 2026-05-06 23:39 | 44.78212 | 22.88115 | 40015 ft | 484 kts | 168° |
| 2026-05-06 23:40 | 44.71704 | 22.90685 | 40013 ft | 485 kts | 168° |
| 2026-05-06 23:40 | 44.65250 | 22.93227 | 40004 ft | 485 kts | 168° |
| 2026-05-06 23:41 | 44.58728 | 22.95791 | 40010 ft | 485 kts | 168° |
| 2026-05-06 23:41 | 44.52192 | 22.98354 | 40007 ft | 487 kts | 168° |
| 2026-05-06 23:42 | 44.45715 | 23.00887 | 40009 ft | 487 kts | 168° |
| 2026-05-06 23:42 | 44.39177 | 23.03439 | 40004 ft | 487 kts | 168° |
| 2026-05-06 23:43 | 44.32654 | 23.05979 | 39993 ft | 487 kts | 167° |
| 2026-05-06 23:43 | 44.26167 | 23.08499 | 39994 ft | 487 kts | 167° |
| 2026-05-06 23:44 | 44.19646 | 23.11027 | 39991 ft | 487 kts | 168° |
| 2026-05-06 23:44 | 44.13103 | 23.13557 | 39986 ft | 487 kts | 168° |
| 2026-05-06 23:45 | 44.06574 | 23.16075 | 39984 ft | 488 kts | 168° |
| 2026-05-06 23:45 | 44.00019 | 23.18598 | 39985 ft | 488 kts | 167° |
| 2026-05-06 23:46 | 43.93483 | 23.21109 | 39976 ft | 488 kts | 167° |
| 2026-05-06 23:46 | 43.86935 | 23.23433 | 39982 ft | 487 kts | 174° |
| 2026-05-06 23:47 | 43.80206 | 23.23629 | 39982 ft | 477 kts | 192° |
| 2026-05-06 23:47 | 43.73781 | 23.21708 | 39981 ft | 475 kts | 198° |
| 2026-05-06 23:48 | 43.67393 | 23.19351 | 39989 ft | 476 kts | 199° |
| 2026-05-06 23:48 | 43.60976 | 23.16950 | 39990 ft | 477 kts | 199° |
| 2026-05-06 23:49 | 43.54556 | 23.14605 | 39987 ft | 477 kts | 198° |
| 2026-05-06 23:49 | 43.48110 | 23.12287 | 40002 ft | 480 kts | 198° |
| 2026-05-06 23:50 | 43.41641 | 23.09973 | 40010 ft | 480 kts | 198° |
| 2026-05-06 23:50 | 43.31994 | 23.06387 | 40019 ft | 481 kts | 199° |
| 2026-05-06 23:51 | 43.25545 | 23.03905 | 40033 ft | 481 kts | 199° |
| 2026-05-06 23:51 | 43.19090 | 23.01435 | 40024 ft | 481 kts | 199° |
| 2026-05-06 23:52 | 43.12629 | 22.98981 | 40051 ft | 483 kts | 199° |
| 2026-05-06 23:52 | 43.06130 | 22.96519 | 40060 ft | 483 kts | 199° |
| 2026-05-06 23:53 | 42.99647 | 22.94063 | 40061 ft | 483 kts | 199° |
| 2026-05-06 23:53 | 42.93265 | 22.91652 | 40066 ft | 482 kts | 199° |
| 2026-05-06 23:54 | 42.86770 | 22.89206 | 40070 ft | 482 kts | 199° |
| 2026-05-06 23:54 | 42.80325 | 22.86785 | 40071 ft | 482 kts | 199° |
| 2026-05-06 23:55 | 42.73849 | 22.84357 | 40074 ft | 482 kts | 199° |
| 2026-05-06 23:55 | 42.67361 | 22.81929 | 40075 ft | 485 kts | 199° |
| 2026-05-06 23:56 | 42.60877 | 22.79508 | 40069 ft | 486 kts | 199° |
| 2026-05-06 23:56 | 42.54354 | 22.77079 | 40067 ft | 484 kts | 199° |
| 2026-05-06 23:57 | 42.47851 | 22.74663 | 40072 ft | 483 kts | 199° |
| 2026-05-06 23:57 | 42.41390 | 22.72266 | 40073 ft | 482 kts | 199° |
| 2026-05-06 23:58 | 42.34912 | 22.69868 | 40079 ft | 482 kts | 199° |
| 2026-05-06 23:58 | 42.28446 | 22.67480 | 40068 ft | 482 kts | 199° |
| 2026-05-06 23:59 | 42.21970 | 22.65094 | 40090 ft | 483 kts | 199° |
| 2026-05-06 23:59 | 42.15517 | 22.62721 | 40086 ft | 483 kts | 199° |
| 2026-05-07 00:00 | 42.08952 | 22.60683 | 40085 ft | 487 kts | 190° |
| 2026-05-07 00:00 | 42.03343 | 22.59933 | 40086 ft | 488 kts | 188° |
| 2026-05-07 00:01 | 41.95422 | 22.59188 | 40088 ft | 489 kts | 187° |
| 2026-05-07 00:01 | 41.88615 | 22.58597 | 40082 ft | 489 kts | 187° |
| 2026-05-07 00:02 | 41.81814 | 22.57986 | 40081 ft | 489 kts | 187° |
| 2026-05-07 00:02 | 41.75064 | 22.57361 | 40068 ft | 489 kts | 187° |
| 2026-05-07 00:03 | 41.68261 | 22.56731 | 40077 ft | 489 kts | 187° |
| 2026-05-07 00:03 | 41.61468 | 22.56104 | 40075 ft | 489 kts | 187° |
| 2026-05-07 00:04 | 41.54674 | 22.55480 | 40073 ft | 489 kts | 187° |
| 2026-05-07 00:04 | 41.47878 | 22.54856 | 40080 ft | 489 kts | 187° |
| 2026-05-07 00:05 | 41.41074 | 22.54232 | 40081 ft | 489 kts | 187° |
| 2026-05-07 00:05 | 41.34291 | 22.53612 | 40074 ft | 490 kts | 187° |
| 2026-05-07 00:06 | 41.27469 | 22.52989 | 40081 ft | 489 kts | 187° |
| 2026-05-07 00:06 | 41.20720 | 22.52374 | 40081 ft | 489 kts | 187° |
| 2026-05-07 00:07 | 41.13902 | 22.52303 | 40078 ft | 494 kts | 176° |
| 2026-05-07 00:07 | 41.07223 | 22.54649 | 40082 ft | 499 kts | 162° |
| 2026-05-07 00:08 | 41.00767 | 22.58008 | 40076 ft | 500 kts | 160° |
| 2026-05-07 00:08 | 40.94331 | 22.61543 | 40064 ft | 501 kts | 160° |
| 2026-05-07 00:09 | 40.87893 | 22.65041 | 40080 ft | 500 kts | 160° |
| 2026-05-07 00:09 | 40.81428 | 22.68500 | 40081 ft | 500 kts | 160° |
| 2026-05-07 00:10 | 40.75012 | 22.71907 | 40077 ft | 500 kts | 160° |
| 2026-05-07 00:10 | 40.68544 | 22.75332 | 40075 ft | 500 kts | 160° |
| 2026-05-07 00:11 | 40.62103 | 22.78738 | 40078 ft | 500 kts | 160° |
| 2026-05-07 00:11 | 40.55620 | 22.82160 | 40075 ft | 502 kts | 160° |
| 2026-05-07 00:12 | 40.50234 | 22.84999 | 40075 ft | 502 kts | 160° |
| 2026-05-07 00:12 | 40.43748 | 22.88410 | 40074 ft | 502 kts | 160° |
| 2026-05-07 00:13 | 40.37263 | 22.91814 | 40074 ft | 502 kts | 160° |
| 2026-05-07 00:13 | 40.30796 | 22.95201 | 40071 ft | 502 kts | 160° |
| 2026-05-07 00:14 | 40.24311 | 22.98590 | 40060 ft | 502 kts | 160° |
| 2026-05-07 00:14 | 40.17813 | 23.01980 | 40059 ft | 502 kts | 160° |
| 2026-05-07 00:15 | 40.11304 | 23.05367 | 40056 ft | 502 kts | 160° |
| 2026-05-07 00:15 | 40.04813 | 23.08739 | 40055 ft | 502 kts | 160° |
| 2026-05-07 00:16 | 39.98330 | 23.12100 | 40051 ft | 503 kts | 160° |
| 2026-05-07 00:16 | 39.91802 | 23.15477 | 40052 ft | 504 kts | 160° |
| 2026-05-07 00:17 | 39.85285 | 23.18841 | 40047 ft | 504 kts | 160° |
| 2026-05-07 00:17 | 39.78751 | 23.22208 | 40049 ft | 504 kts | 160° |
| 2026-05-07 00:18 | 39.72220 | 23.25565 | 40047 ft | 505 kts | 160° |
| 2026-05-07 00:18 | 39.65725 | 23.28898 | 40048 ft | 505 kts | 160° |
| 2026-05-07 00:19 | 39.59185 | 23.32247 | 40048 ft | 505 kts | 160° |
| 2026-05-07 00:19 | 39.52638 | 23.35593 | 40048 ft | 505 kts | 160° |
| 2026-05-07 00:20 | 39.46098 | 23.38927 | 40046 ft | 505 kts | 160° |
| 2026-05-07 00:20 | 39.39555 | 23.42258 | 40044 ft | 505 kts | 160° |
| 2026-05-07 00:21 | 39.33000 | 23.45587 | 40044 ft | 505 kts | 160° |
| 2026-05-07 00:21 | 39.26441 | 23.48911 | 40048 ft | 506 kts | 160° |
| 2026-05-07 00:22 | 39.19897 | 23.52222 | 40048 ft | 506 kts | 160° |
| 2026-05-07 00:22 | 39.13341 | 23.55532 | 40050 ft | 506 kts | 160° |
| 2026-05-07 00:23 | 39.06822 | 23.58817 | 40048 ft | 506 kts | 160° |
| 2026-05-07 00:23 | 39.00256 | 23.62118 | 40055 ft | 506 kts | 160° |
| 2026-05-07 00:24 | 38.93601 | 23.65001 | 40061 ft | 501 kts | 173° |
| 2026-05-07 00:24 | 38.86739 | 23.66199 | 40050 ft | 501 kts | 176° |
| 2026-05-07 00:25 | 38.79814 | 23.67236 | 40064 ft | 501 kts | 176° |
| 2026-05-07 00:25 | 38.72886 | 23.68256 | 40066 ft | 501 kts | 176° |
| 2026-05-07 00:26 | 38.65941 | 23.69274 | 40070 ft | 501 kts | 176° |
| 2026-05-07 00:26 | 38.59006 | 23.70288 | 40076 ft | 501 kts | 176° |
| 2026-05-07 00:27 | 38.52115 | 23.71294 | 40075 ft | 501 kts | 176° |
| 2026-05-07 00:27 | 38.45152 | 23.72307 | 40082 ft | 501 kts | 176° |
| 2026-05-07 00:28 | 38.38211 | 23.73316 | 40090 ft | 501 kts | 176° |
| 2026-05-07 00:28 | 38.31333 | 23.74313 | 40078 ft | 501 kts | 176° |
| 2026-05-07 00:29 | 38.24379 | 23.75321 | 40101 ft | 501 kts | 176° |
| 2026-05-07 00:30 | 38.14169 | 23.74762 | 40067 ft | 484 kts | 207° |
| 2026-05-07 00:30 | 38.11305 | 23.72680 | 40084 ft | 475 kts | 220° |
| 2026-05-07 00:30 | 38.06055 | 23.67645 | 40079 ft | 476 kts | 220° |
| 2026-05-07 00:31 | 38.00623 | 23.62786 | 40078 ft | 478 kts | 218° |
| 2026-05-07 00:31 | 37.95108 | 23.58079 | 40089 ft | 478 kts | 218° |
| 2026-05-07 00:32 | 37.89552 | 23.53414 | 40093 ft | 478 kts | 217° |
| 2026-05-07 00:32 | 37.83999 | 23.48779 | 40092 ft | 478 kts | 218° |
| 2026-05-07 00:33 | 37.77964 | 23.45259 | 40089 ft | 490 kts | 193° |
| 2026-05-07 00:33 | 37.74536 | 23.45074 | 40086 ft | 497 kts | 177° |
| 2026-05-07 00:33 | 37.71183 | 23.46017 | 40089 ft | 503 kts | 161° |
| 2026-05-07 00:34 | 37.68068 | 23.48052 | 40086 ft | 508 kts | 146° |
| 2026-05-07 00:34 | 37.65441 | 23.51049 | 40085 ft | 511 kts | 130° |
| 2026-05-07 00:34 | 37.63498 | 23.54803 | 40087 ft | 511 kts | 114° |
| 2026-05-07 00:34 | 37.62379 | 23.59042 | 40086 ft | 508 kts | 98° |
| 2026-05-07 00:35 | 37.62156 | 23.63454 | 40085 ft | 504 kts | 83° |
| 2026-05-07 00:35 | 37.62835 | 23.67759 | 40082 ft | 497 kts | 67° |
| 2026-05-07 00:35 | 37.64351 | 23.71623 | 40082 ft | 489 kts | 51° |
| 2026-05-07 00:35 | 37.66425 | 23.74998 | 40094 ft | 485 kts | 43° |
| 2026-05-07 00:36 | 37.69014 | 23.77649 | 40084 ft | 475 kts | 26° |
| 2026-05-07 00:36 | 37.72014 | 23.79290 | 40083 ft | 467 kts | 13° |
| 2026-05-07 00:36 | 37.78245 | 23.81511 | 40088 ft | 472 kts | 23° |
| 2026-05-07 00:37 | 37.83730 | 23.86102 | 40078 ft | 478 kts | 32° |
| 2026-05-07 00:37 | 37.89056 | 23.91155 | 40075 ft | 479 kts | 33° |
| 2026-05-07 00:38 | 37.94387 | 23.96262 | 40074 ft | 479 kts | 33° |
| 2026-05-07 00:38 | 37.99816 | 24.01162 | 40085 ft | 476 kts | 29° |
| 2026-05-07 00:39 | 38.02371 | 24.03866 | 40094 ft | 484 kts | 45° |
| 2026-05-07 00:39 | 38.04271 | 24.07393 | 40085 ft | 491 kts | 61° |
| 2026-05-07 00:39 | 38.05392 | 24.11509 | 40089 ft | 497 kts | 77° |
| 2026-05-07 00:39 | 38.05628 | 24.15894 | 40087 ft | 502 kts | 92° |
| 2026-05-07 00:40 | 38.04954 | 24.20255 | 40082 ft | 505 kts | 108° |
| 2026-05-07 00:40 | 38.03422 | 24.24245 | 40082 ft | 507 kts | 124° |
| 2026-05-07 00:40 | 38.01124 | 24.27624 | 40080 ft | 506 kts | 140° |
| 2026-05-07 00:40 | 37.98234 | 24.30133 | 40083 ft | 504 kts | 155° |
| 2026-05-07 00:41 | 37.94982 | 24.31598 | 40085 ft | 499 kts | 171° |
| 2026-05-07 00:41 | 37.91540 | 24.31947 | 40087 ft | 493 kts | 187° |
| 2026-05-07 00:41 | 37.88194 | 24.31172 | 40084 ft | 487 kts | 200° |
| 2026-05-07 00:41 | 37.84979 | 24.29862 | 40088 ft | 487 kts | 202° |
| 2026-05-07 00:42 | 37.78555 | 24.27096 | 40092 ft | 488 kts | 202° |
| 2026-05-07 00:42 | 37.72002 | 24.24780 | 40082 ft | 493 kts | 188° |
| 2026-05-07 00:43 | 37.68552 | 24.24838 | 40094 ft | 498 kts | 175° |
| 2026-05-07 00:43 | 37.65177 | 24.25662 | 40087 ft | 501 kts | 167° |
| 2026-05-07 00:43 | 37.58587 | 24.28656 | 40077 ft | 506 kts | 153° |
| 2026-05-07 00:44 | 37.55723 | 24.31212 | 40083 ft | 508 kts | 137° |
| 2026-05-07 00:44 | 37.53465 | 24.34615 | 40081 ft | 508 kts | 121° |
| 2026-05-07 00:44 | 37.51969 | 24.38635 | 40085 ft | 507 kts | 105° |
| 2026-05-07 00:44 | 37.51342 | 24.42972 | 40086 ft | 503 kts | 90° |
| 2026-05-07 00:45 | 37.51622 | 24.47328 | 40086 ft | 497 kts | 74° |
| 2026-05-07 00:45 | 37.52656 | 24.51470 | 40087 ft | 495 kts | 69° |
| 2026-05-07 00:45 | 37.54181 | 24.59989 | 40091 ft | 502 kts | 81° |
| 2026-05-07 00:46 | 37.54602 | 24.68792 | 40093 ft | 504 kts | 87° |
| 2026-05-07 00:46 | 37.54586 | 24.77577 | 40098 ft | 505 kts | 89° |
| 2026-05-07 00:47 | 37.54205 | 24.86416 | 40095 ft | 506 kts | 98° |
| 2026-05-07 00:47 | 37.53296 | 24.90703 | 40096 ft | 507 kts | 110° |
| 2026-05-07 00:47 | 37.51710 | 24.94664 | 40097 ft | 507 kts | 123° |
| 2026-05-07 00:48 | 37.49526 | 24.98132 | 40105 ft | 506 kts | 136° |
| 2026-05-07 00:48 | 37.46843 | 25.00991 | 40110 ft | 505 kts | 146° |
| 2026-05-07 00:48 | 37.40661 | 25.05062 | 40107 ft | 501 kts | 165° |
| 2026-05-07 00:49 | 37.37268 | 25.06003 | 40093 ft | 496 kts | 176° |
| 2026-05-07 00:49 | 37.33875 | 25.06068 | 40103 ft | 491 kts | 188° |
| 2026-05-07 00:49 | 37.27358 | 25.03952 | 40103 ft | 482 kts | 208° |
| 2026-05-07 00:50 | 37.21856 | 24.99361 | 40087 ft | 472 kts | 227° |
| 2026-05-07 00:50 | 37.17930 | 24.92889 | 40090 ft | 462 kts | 246° |
| 2026-05-07 00:51 | 37.15998 | 24.85305 | 40091 ft | 455 kts | 265° |
| 2026-05-07 00:51 | 37.16110 | 24.77462 | 40086 ft | 450 kts | 282° |
| 2026-05-07 00:52 | 37.18190 | 24.70109 | 40081 ft | 447 kts | 299° |
| 2026-05-07 00:52 | 37.21973 | 24.64013 | 40081 ft | 448 kts | 316° |
| 2026-05-07 00:53 | 37.26787 | 24.59034 | 40081 ft | 449 kts | 320° |
| 2026-05-07 00:53 | 37.31687 | 24.54158 | 40082 ft | 449 kts | 320° |
| 2026-05-07 00:54 | 37.36583 | 24.49245 | 40078 ft | 449 kts | 320° |
| 2026-05-07 00:54 | 37.41433 | 24.44354 | 40090 ft | 449 kts | 320° |
| 2026-05-07 00:55 | 37.46322 | 24.39407 | 40083 ft | 451 kts | 320° |
| 2026-05-07 00:55 | 37.51199 | 24.34467 | 40080 ft | 450 kts | 320° |
| 2026-05-07 00:56 | 37.56167 | 24.29655 | 40078 ft | 451 kts | 330° |
| 2026-05-07 00:56 | 37.59102 | 24.28252 | 40084 ft | 455 kts | 346° |
| 2026-05-07 00:56 | 37.62276 | 24.27934 | 40087 ft | 460 kts | 360° |
| 2026-05-07 00:57 | 37.68590 | 24.29550 | 40076 ft | 470 kts | 17° |
| 2026-05-07 00:57 | 37.73441 | 24.32723 | 40095 ft | 477 kts | 32° |
| 2026-05-07 00:58 | 37.78152 | 24.38692 | 40097 ft | 487 kts | 52° |
| 2026-05-07 00:58 | 37.79847 | 24.42422 | 40081 ft | 492 kts | 63° |
| 2026-05-07 00:58 | 37.81008 | 24.46527 | 40082 ft | 497 kts | 73° |
| 2026-05-07 00:59 | 37.81545 | 24.55263 | 40078 ft | 504 kts | 95° |
| 2026-05-07 00:59 | 37.80876 | 24.59624 | 40083 ft | 506 kts | 105° |
| 2026-05-07 00:59 | 37.79602 | 24.63786 | 40077 ft | 507 kts | 117° |
| 2026-05-07 01:00 | 37.77723 | 24.67553 | 40088 ft | 508 kts | 128° |
| 2026-05-07 01:00 | 37.75304 | 24.70807 | 40072 ft | 507 kts | 140° |
| 2026-05-07 01:00 | 37.72491 | 24.73478 | 40088 ft | 506 kts | 150° |
| 2026-05-07 01:01 | 37.66098 | 24.77103 | 40082 ft | 503 kts | 161° |
| 2026-05-07 01:01 | 37.59574 | 24.80192 | 40105 ft | 504 kts | 161° |
| 2026-05-07 01:02 | 37.52895 | 24.82827 | 40096 ft | 500 kts | 173° |
| 2026-05-07 01:02 | 37.49451 | 24.83192 | 40096 ft | 494 kts | 184° |
| 2026-05-07 01:02 | 37.46060 | 24.82740 | 40104 ft | 488 kts | 195° |
| 2026-05-07 01:02 | 37.42824 | 24.81519 | 40101 ft | 483 kts | 206° |
| 2026-05-07 01:03 | 37.39843 | 24.79642 | 40101 ft | 478 kts | 216° |
| 2026-05-07 01:03 | 37.34872 | 24.74268 | 40097 ft | 468 kts | 234° |
| 2026-05-07 01:04 | 37.31633 | 24.67348 | 40091 ft | 459 kts | 252° |
| 2026-05-07 01:04 | 37.30370 | 24.59560 | 40080 ft | 452 kts | 270° |
| 2026-05-07 01:05 | 37.31152 | 24.51800 | 40085 ft | 448 kts | 288° |
| 2026-05-07 01:05 | 37.33823 | 24.44779 | 40080 ft | 446 kts | 305° |
| 2026-05-07 01:06 | 37.38115 | 24.39166 | 40078 ft | 448 kts | 322° |
| 2026-05-07 01:06 | 37.43584 | 24.35484 | 40083 ft | 452 kts | 336° |
| 2026-05-07 01:07 | 37.49508 | 24.32727 | 40082 ft | 453 kts | 338° |
| 2026-05-07 01:07 | 37.55433 | 24.30014 | 40079 ft | 454 kts | 339° |
| 2026-05-07 01:08 | 37.61654 | 24.28453 | 40083 ft | 460 kts | 355° |
| 2026-05-07 01:08 | 37.68025 | 24.29476 | 40090 ft | 468 kts | 13° |
| 2026-05-07 01:09 | 37.73881 | 24.33181 | 40096 ft | 478 kts | 33° |
| 2026-05-07 01:09 | 37.78451 | 24.39293 | 40097 ft | 489 kts | 53° |
| 2026-05-07 01:09 | 37.80079 | 24.43085 | 40080 ft | 493 kts | 64° |
| 2026-05-07 01:10 | 37.81164 | 24.47220 | 40093 ft | 498 kts | 75° |
| 2026-05-07 01:10 | 37.81502 | 24.55979 | 40081 ft | 505 kts | 96° |
| 2026-05-07 01:10 | 37.80724 | 24.60328 | 40081 ft | 507 kts | 107° |
| 2026-05-07 01:11 | 37.79343 | 24.64432 | 40075 ft | 508 kts | 118° |
| 2026-05-07 01:11 | 37.77369 | 24.68136 | 40090 ft | 508 kts | 130° |
| 2026-05-07 01:11 | 37.74905 | 24.71314 | 40074 ft | 508 kts | 141° |
| 2026-05-07 01:11 | 37.72029 | 24.73890 | 40076 ft | 506 kts | 152° |
| 2026-05-07 01:12 | 37.68864 | 24.75791 | 40078 ft | 504 kts | 160° |
| 2026-05-07 01:12 | 37.62281 | 24.78893 | 40104 ft | 505 kts | 161° |
| 2026-05-07 01:13 | 37.55687 | 24.81957 | 40105 ft | 504 kts | 165° |
| 2026-05-07 01:13 | 37.48871 | 24.83190 | 40104 ft | 494 kts | 186° |
| 2026-05-07 01:13 | 37.45497 | 24.82602 | 40102 ft | 488 kts | 197° |
| 2026-05-07 01:14 | 37.42296 | 24.81257 | 40104 ft | 482 kts | 207° |
| 2026-05-07 01:14 | 37.36739 | 24.76737 | 40097 ft | 472 kts | 226° |
| 2026-05-07 01:15 | 37.32728 | 24.70341 | 40091 ft | 463 kts | 245° |
| 2026-05-07 01:15 | 37.30627 | 24.62832 | 40092 ft | 454 kts | 263° |
| 2026-05-07 01:16 | 37.30580 | 24.54980 | 40085 ft | 449 kts | 281° |
| 2026-05-07 01:16 | 37.32474 | 24.47605 | 40080 ft | 446 kts | 298° |
| 2026-05-07 01:17 | 37.36116 | 24.41327 | 39997 ft | 445 kts | 314° |
| 2026-05-07 01:17 | 37.38463 | 24.38802 | 39401 ft | 447 kts | 323° |
| 2026-05-07 01:17 | 37.41144 | 24.36778 | 38643 ft | 451 kts | 332° |
| 2026-05-07 01:17 | 37.44040 | 24.35242 | 37701 ft | 453 kts | 337° |
| 2026-05-07 01:18 | 37.46998 | 24.33866 | 36721 ft | 453 kts | 339° |
| 2026-05-07 01:18 | 37.49963 | 24.32511 | 35714 ft | 453 kts | 339° |
| 2026-05-07 01:18 | 37.52927 | 24.31150 | 34596 ft | 453 kts | 339° |
| 2026-05-07 01:18 | 37.55902 | 24.29812 | 33222 ft | 456 kts | 341° |
| 2026-05-07 01:19 | 37.58998 | 24.28759 | 31779 ft | 464 kts | 347° |
| 2026-05-07 01:19 | 37.62209 | 24.28062 | 30337 ft | 472 kts | 349° |
| 2026-05-07 01:19 | 37.65393 | 24.27202 | 28924 ft | 476 kts | 343° |
| 2026-05-07 01:19 | 37.68482 | 24.26020 | 28806 ft | 454 kts | 340° |
| 2026-05-07 01:20 | 37.71477 | 24.24786 | 26975 ft | 460 kts | 342° |
| 2026-05-07 01:20 | 37.74516 | 24.23665 | 26115 ft | 441 kts | 342° |
| 2026-05-07 01:20 | 37.77422 | 24.22628 | 24411 ft | 431 kts | 342° |
| 2026-05-07 01:20 | 37.80325 | 24.21621 | 21848 ft | 439 kts | 343° |
| 2026-05-07 01:21 | 37.83316 | 24.20754 | 19958 ft | 435 kts | 346° |
| 2026-05-07 01:21 | 37.86209 | 24.19878 | 18033 ft | 419 kts | 340° |
| 2026-05-07 01:21 | 37.88604 | 24.17890 | 16414 ft | 402 kts | 311° |
| 2026-05-07 01:21 | 37.89829 | 24.14811 | 14097 ft | 401 kts | 279° |
| 2026-05-07 01:22 | 37.89442 | 24.11377 | 12956 ft | 374 kts | 256° |
| 2026-05-07 01:22 | 37.89206 | 24.08055 | 10222 ft | 395 kts | 277° |
| 2026-05-07 01:22 | 37.89511 | 24.04702 | 9143 ft | 369 kts | 271° |
| 2026-05-07 01:22 | 37.88995 | 24.01595 | 7610 ft | 359 kts | 246° |
| 2026-05-07 01:23 | 37.87997 | 23.98747 | 6260 ft | 348 kts | 248° |
| 2026-05-07 01:23 | 37.87184 | 23.95976 | 5781 ft | 316 kts | 249° |
| 2026-05-07 01:23 | 37.86476 | 23.93536 | 5789 ft | 286 kts | 250° |
| 2026-05-07 01:23 | 37.86384 | 23.91127 | 5572 ft | 276 kts | 291° |
| 2026-05-07 01:24 | 37.87604 | 23.89243 | 4291 ft | 295 kts | 327° |
| 2026-05-07 01:24 | 37.89626 | 23.88702 | 2698 ft | 302 kts | 8° |
| 2026-05-07 01:24 | 37.91405 | 23.89760 | 1787 ft | 270 kts | 41° |
| 2026-05-07 01:24 | 37.92371 | 23.91776 | 424 ft | 266 kts | 56° |
| 2026-05-07 01:25 | 37.93360 | 23.93416 | 362 ft | 209 kts | 25° |
| 2026-05-07 01:25 | 37.94390 | 23.94315 | 307 ft | 137 kts | 4° |
| 2026-05-07 01:25 | 37.95004 | 23.94469 | 311 ft | 38 kts | 46° |
| 2026-05-07 01:25 | 37.94975 | 23.94677 | 311 ft | 21 kts | 143° |
| 2026-05-07 01:26 | 37.94940 | 23.94697 | 309 ft | 1 kts | 160° |
| 2026-05-07 01:26 | 37.94933 | 23.94700 | 308 ft | 3 kts | 160° |
| 2026-05-07 01:26 | 37.94903 | 23.94711 | 309 ft | 6 kts | 167° |
| 2026-05-07 01:26 | 37.94853 | 23.94709 | 308 ft | 9 kts | 189° |
| 2026-05-07 01:27 | 37.94796 | 23.94676 | 309 ft | 9 kts | 215° |
| 2026-05-07 01:27 | 37.94736 | 23.94632 | 310 ft | 10 kts | 195° |
| 2026-05-07 01:27 | 37.94671 | 23.94650 | 309 ft | 10 kts | 164° |
| 2026-05-07 01:27 | 37.94602 | 23.94631 | 309 ft | 15 kts | 205° |
| 2026-05-07 01:28 | 37.94433 | 23.94475 | 309 ft | 45 kts | 218° |
| 2026-05-07 01:28 | 37.94123 | 23.94172 | 308 ft | 63 kts | 218° |
| 2026-05-07 01:28 | 37.93786 | 23.93842 | 308 ft | 59 kts | 214° |
| 2026-05-07 01:28 | 37.93520 | 23.93609 | 307 ft | 40 kts | 216° |
| 2026-05-07 01:29 | 37.93363 | 23.93559 | 307 ft | 18 kts | 148° |
| 2026-05-07 01:29 | 37.93337 | 23.93602 | 307 ft | 12 kts | 125° |
| 2026-05-07 01:29 | 37.93194 | 23.93832 | 309 ft | 52 kts | 127° |
| 2026-05-07 01:29 | 37.93032 | 23.94105 | 309 ft | 19 kts | 127° |
| 2026-05-07 01:30 | 37.92983 | 23.94186 | 308 ft | 6 kts | 127° |
| 2026-05-07 01:30 | 37.92948 | 23.94242 | 308 ft | 10 kts | 129° |
| 2026-05-07 01:30 | 37.92893 | 23.94265 | 308 ft | 7 kts | 192° |
| 2026-05-07 01:30 | 37.92848 | 23.94236 | 309 ft | 7 kts | 213° |
| 2026-05-07 01:31 | 37.92837 | 23.94226 | 308 ft | 0 kts | 216° |